sensor_id;sensor_type;location;lat;lon;timestamp;P1;durP1;ratioP1;P2;durP2;ratioP2
25936;SDS011;13733;51.178;4.450;2023-04-19T00:01:48;20.48;;;18.25;;
25936;SDS011;13733;51.178;4.450;2023-04-19T00:04:14;21.88;;;17.92;;
25936;SDS011;13733;51.178;4.450;2023-04-19T00:06:39;20.88;;;17.48;;
25936;SDS011;13733;51.178;4.450;2023-04-19T00:09:06;20.48;;;18.27;;
25936;SDS011;13733;51.178;4.450;2023-04-19T00:11:32;20.38;;;17.63;;
25936;SDS011;13733;51.178;4.450;2023-04-19T00:13:58;20.85;;;17.75;;
25936;SDS011;13733;51.178;4.450;2023-04-19T00:16:24;21.70;;;18.77;;
25936;SDS011;13733;51.178;4.450;2023-04-19T00:18:50;19.58;;;17.52;;
25936;SDS011;13733;51.178;4.450;2023-04-19T00:21:16;21.25;;;17.92;;
25936;SDS011;13733;51.178;4.450;2023-04-19T00:23:42;22.55;;;18.67;;
25936;SDS011;13733;51.178;4.450;2023-04-19T00:26:07;19.33;;;17.23;;
25936;SDS011;13733;51.178;4.450;2023-04-19T00:28:36;21.98;;;18.27;;
25936;SDS011;13733;51.178;4.450;2023-04-19T00:31:01;20.65;;;18.45;;
25936;SDS011;13733;51.178;4.450;2023-04-19T00:33:27;23.70;;;19.48;;
25936;SDS011;13733;51.178;4.450;2023-04-19T00:35:55;20.60;;;18.00;;
25936;SDS011;13733;51.178;4.450;2023-04-19T00:38:21;20.73;;;17.77;;
25936;SDS011;13733;51.178;4.450;2023-04-19T00:40:47;21.48;;;18.23;;
25936;SDS011;13733;51.178;4.450;2023-04-19T00:43:18;22.85;;;17.95;;
25936;SDS011;13733;51.178;4.450;2023-04-19T00:45:45;21.85;;;18.30;;
25936;SDS011;13733;51.178;4.450;2023-04-19T00:48:12;20.90;;;18.15;;
25936;SDS011;13733;51.178;4.450;2023-04-19T00:50:39;23.02;;;18.52;;
25936;SDS011;13733;51.178;4.450;2023-04-19T00:53:06;23.38;;;18.48;;
25936;SDS011;13733;51.178;4.450;2023-04-19T00:55:32;22.98;;;18.50;;
25936;SDS011;13733;51.178;4.450;2023-04-19T00:57:58;21.45;;;18.17;;
25936;SDS011;13733;51.178;4.450;2023-04-19T01:00:24;25.23;;;19.05;;
25936;SDS011;13733;51.178;4.450;2023-04-19T01:02:50;26.33;;;19.27;;
25936;SDS011;13733;51.178;4.450;2023-04-19T01:05:17;24.65;;;18.58;;
25936;SDS011;13733;51.178;4.450;2023-04-19T01:07:43;23.73;;;19.73;;
25936;SDS011;13733;51.178;4.450;2023-04-19T01:10:13;21.10;;;18.80;;
25936;SDS011;13733;51.178;4.450;2023-04-19T01:12:39;24.17;;;19.05;;
25936;SDS011;13733;51.178;4.450;2023-04-19T01:15:06;23.40;;;19.98;;
25936;SDS011;13733;51.178;4.450;2023-04-19T01:17:32;24.60;;;18.98;;
25936;SDS011;13733;51.178;4.450;2023-04-19T01:20:02;21.02;;;18.67;;
25936;SDS011;13733;51.178;4.450;2023-04-19T01:22:33;24.05;;;20.15;;
25936;SDS011;13733;51.178;4.450;2023-04-19T01:27:29;24.63;;;19.65;;
25936;SDS011;13733;51.178;4.450;2023-04-19T01:29:56;24.17;;;19.48;;
25936;SDS011;13733;51.178;4.450;2023-04-19T01:32:25;22.52;;;18.55;;
25936;SDS011;13733;51.178;4.450;2023-04-19T01:34:51;23.73;;;19.67;;
25936;SDS011;13733;51.178;4.450;2023-04-19T01:37:17;23.63;;;19.45;;
25936;SDS011;13733;51.178;4.450;2023-04-19T01:39:43;23.25;;;19.33;;
25936;SDS011;13733;51.178;4.450;2023-04-19T01:42:08;22.73;;;19.88;;
25936;SDS011;13733;51.178;4.450;2023-04-19T01:44:35;22.30;;;19.60;;
25936;SDS011;13733;51.178;4.450;2023-04-19T01:47:01;22.45;;;19.73;;
25936;SDS011;13733;51.178;4.450;2023-04-19T01:49:26;24.17;;;19.00;;
25936;SDS011;13733;51.178;4.450;2023-04-19T01:51:52;21.48;;;19.08;;
25936;SDS011;13733;51.178;4.450;2023-04-19T01:54:19;21.98;;;19.55;;
25936;SDS011;13733;51.178;4.450;2023-04-19T01:56:48;23.15;;;19.13;;
25936;SDS011;13733;51.178;4.450;2023-04-19T01:59:13;28.10;;;19.92;;
25936;SDS011;13733;51.178;4.450;2023-04-19T02:01:39;20.73;;;18.55;;
25936;SDS011;13733;51.178;4.450;2023-04-19T02:04:05;22.67;;;19.40;;
25936;SDS011;13733;51.178;4.450;2023-04-19T02:06:32;20.70;;;18.48;;
25936;SDS011;13733;51.178;4.450;2023-04-19T02:08:57;22.50;;;18.90;;
25936;SDS011;13733;51.178;4.450;2023-04-19T02:11:23;23.08;;;19.15;;
25936;SDS011;13733;51.178;4.450;2023-04-19T02:13:49;23.88;;;19.27;;
25936;SDS011;13733;51.178;4.450;2023-04-19T02:16:15;21.92;;;19.27;;
25936;SDS011;13733;51.178;4.450;2023-04-19T02:18:41;21.27;;;18.70;;
25936;SDS011;13733;51.178;4.450;2023-04-19T02:21:08;23.00;;;19.77;;
25936;SDS011;13733;51.178;4.450;2023-04-19T02:23:35;21.55;;;18.77;;
25936;SDS011;13733;51.178;4.450;2023-04-19T02:26:01;20.95;;;18.65;;
25936;SDS011;13733;51.178;4.450;2023-04-19T02:28:28;21.02;;;18.42;;
25936;SDS011;13733;51.178;4.450;2023-04-19T02:30:54;22.30;;;19.23;;
25936;SDS011;13733;51.178;4.450;2023-04-19T02:33:20;24.40;;;19.40;;
25936;SDS011;13733;51.178;4.450;2023-04-19T02:35:46;22.50;;;19.33;;
25936;SDS011;13733;51.178;4.450;2023-04-19T02:38:12;23.25;;;19.20;;
25936;SDS011;13733;51.178;4.450;2023-04-19T02:40:38;24.58;;;19.48;;
25936;SDS011;13733;51.178;4.450;2023-04-19T02:43:03;23.67;;;18.35;;
25936;SDS011;13733;51.178;4.450;2023-04-19T02:45:29;25.45;;;18.77;;
25936;SDS011;13733;51.178;4.450;2023-04-19T02:47:55;23.88;;;20.05;;
25936;SDS011;13733;51.178;4.450;2023-04-19T02:50:22;23.35;;;19.30;;
25936;SDS011;13733;51.178;4.450;2023-04-19T02:52:49;22.88;;;18.08;;
25936;SDS011;13733;51.178;4.450;2023-04-19T02:55:15;23.50;;;19.45;;
25936;SDS011;13733;51.178;4.450;2023-04-19T02:57:43;25.33;;;19.98;;
25936;SDS011;13733;51.178;4.450;2023-04-19T03:00:10;25.48;;;19.88;;
25936;SDS011;13733;51.178;4.450;2023-04-19T03:02:40;23.48;;;19.33;;
25936;SDS011;13733;51.178;4.450;2023-04-19T03:05:08;23.73;;;18.92;;
25936;SDS011;13733;51.178;4.450;2023-04-19T03:07:34;22.65;;;18.55;;
25936;SDS011;13733;51.178;4.450;2023-04-19T03:10:01;21.30;;;18.23;;
25936;SDS011;13733;51.178;4.450;2023-04-19T03:12:26;23.90;;;19.73;;
25936;SDS011;13733;51.178;4.450;2023-04-19T03:14:52;22.27;;;18.17;;
25936;SDS011;13733;51.178;4.450;2023-04-19T03:17:19;26.98;;;20.17;;
25936;SDS011;13733;51.178;4.450;2023-04-19T03:19:46;27.75;;;19.30;;
25936;SDS011;13733;51.178;4.450;2023-04-19T03:22:11;23.00;;;18.60;;
25936;SDS011;13733;51.178;4.450;2023-04-19T03:24:38;23.73;;;18.95;;
25936;SDS011;13733;51.178;4.450;2023-04-19T03:27:16;24.45;;;18.88;;
25936;SDS011;13733;51.178;4.450;2023-04-19T03:29:44;24.08;;;18.60;;
25936;SDS011;13733;51.178;4.450;2023-04-19T03:32:11;21.88;;;18.33;;
25936;SDS011;13733;51.178;4.450;2023-04-19T03:34:36;25.08;;;18.83;;
25936;SDS011;13733;51.178;4.450;2023-04-19T03:37:02;22.02;;;18.95;;
25936;SDS011;13733;51.178;4.450;2023-04-19T03:39:30;22.67;;;19.48;;
25936;SDS011;13733;51.178;4.450;2023-04-19T03:42:01;23.02;;;18.20;;
25936;SDS011;13733;51.178;4.450;2023-04-19T03:44:59;26.30;;;20.00;;
25936;SDS011;13733;51.178;4.450;2023-04-19T03:47:27;24.17;;;19.92;;
25936;SDS011;13733;51.178;4.450;2023-04-19T03:49:55;21.67;;;18.80;;
25936;SDS011;13733;51.178;4.450;2023-04-19T03:52:22;23.10;;;19.75;;
25936;SDS011;13733;51.178;4.450;2023-04-19T03:54:50;22.73;;;19.08;;
25936;SDS011;13733;51.178;4.450;2023-04-19T03:57:29;24.48;;;19.80;;
25936;SDS011;13733;51.178;4.450;2023-04-19T03:59:58;22.52;;;19.48;;
25936;SDS011;13733;51.178;4.450;2023-04-19T04:02:24;27.88;;;20.45;;
25936;SDS011;13733;51.178;4.450;2023-04-19T04:04:53;24.80;;;20.52;;
25936;SDS011;13733;51.178;4.450;2023-04-19T04:07:21;26.88;;;20.27;;
25936;SDS011;13733;51.178;4.450;2023-04-19T04:09:48;27.10;;;20.95;;
25936;SDS011;13733;51.178;4.450;2023-04-19T04:12:13;28.85;;;20.00;;
25936;SDS011;13733;51.178;4.450;2023-04-19T04:14:40;25.00;;;19.42;;
25936;SDS011;13733;51.178;4.450;2023-04-19T04:17:08;28.30;;;20.70;;
25936;SDS011;13733;51.178;4.450;2023-04-19T04:19:34;27.40;;;19.88;;
25936;SDS011;13733;51.178;4.450;2023-04-19T04:22:00;27.23;;;19.67;;
25936;SDS011;13733;51.178;4.450;2023-04-19T04:24:27;27.85;;;20.75;;
25936;SDS011;13733;51.178;4.450;2023-04-19T04:27:06;30.20;;;20.63;;
25936;SDS011;13733;51.178;4.450;2023-04-19T04:29:36;25.38;;;20.40;;
25936;SDS011;13733;51.178;4.450;2023-04-19T04:32:05;25.55;;;20.30;;
25936;SDS011;13733;51.178;4.450;2023-04-19T04:34:38;26.10;;;20.92;;
25936;SDS011;13733;51.178;4.450;2023-04-19T04:37:10;28.20;;;21.25;;
25936;SDS011;13733;51.178;4.450;2023-04-19T04:39:37;27.27;;;21.48;;
25936;SDS011;13733;51.178;4.450;2023-04-19T04:42:04;28.90;;;20.60;;
25936;SDS011;13733;51.178;4.450;2023-04-19T04:44:33;29.98;;;21.35;;
25936;SDS011;13733;51.178;4.450;2023-04-19T04:47:00;27.67;;;21.65;;
25936;SDS011;13733;51.178;4.450;2023-04-19T04:49:29;27.50;;;21.60;;
25936;SDS011;13733;51.178;4.450;2023-04-19T04:51:56;25.25;;;21.10;;
25936;SDS011;13733;51.178;4.450;2023-04-19T04:54:23;26.90;;;21.58;;
25936;SDS011;13733;51.178;4.450;2023-04-19T04:56:49;28.20;;;21.58;;
25936;SDS011;13733;51.178;4.450;2023-04-19T04:59:15;27.38;;;21.92;;
25936;SDS011;13733;51.178;4.450;2023-04-19T05:01:44;25.88;;;21.00;;
25936;SDS011;13733;51.178;4.450;2023-04-19T05:04:10;28.27;;;21.77;;
25936;SDS011;13733;51.178;4.450;2023-04-19T05:06:36;25.83;;;21.30;;
25936;SDS011;13733;51.178;4.450;2023-04-19T05:09:05;27.35;;;21.08;;
25936;SDS011;13733;51.178;4.450;2023-04-19T05:11:33;25.63;;;21.70;;
25936;SDS011;13733;51.178;4.450;2023-04-19T05:14:01;29.58;;;21.70;;
25936;SDS011;13733;51.178;4.450;2023-04-19T05:16:27;26.52;;;20.95;;
25936;SDS011;13733;51.178;4.450;2023-04-19T05:18:54;29.00;;;21.63;;
25936;SDS011;13733;51.178;4.450;2023-04-19T05:21:20;24.42;;;20.63;;
25936;SDS011;13733;51.178;4.450;2023-04-19T05:23:46;28.45;;;21.73;;
25936;SDS011;13733;51.178;4.450;2023-04-19T05:26:13;26.75;;;21.20;;
25936;SDS011;13733;51.178;4.450;2023-04-19T05:28:40;26.98;;;21.13;;
25936;SDS011;13733;51.178;4.450;2023-04-19T05:31:14;29.40;;;21.50;;
25936;SDS011;13733;51.178;4.450;2023-04-19T05:34:00;26.38;;;20.60;;
25936;SDS011;13733;51.178;4.450;2023-04-19T05:36:26;27.13;;;20.65;;
25936;SDS011;13733;51.178;4.450;2023-04-19T05:38:53;27.45;;;21.38;;
25936;SDS011;13733;51.178;4.450;2023-04-19T05:41:19;28.27;;;20.08;;
25936;SDS011;13733;51.178;4.450;2023-04-19T05:43:45;29.63;;;20.23;;
25936;SDS011;13733;51.178;4.450;2023-04-19T05:46:12;25.30;;;19.83;;
25936;SDS011;13733;51.178;4.450;2023-04-19T05:48:38;24.73;;;18.88;;
25936;SDS011;13733;51.178;4.450;2023-04-19T05:51:29;22.95;;;20.05;;
25936;SDS011;13733;51.178;4.450;2023-04-19T05:54:12;24.98;;;20.05;;
25936;SDS011;13733;51.178;4.450;2023-04-19T05:56:41;26.23;;;19.50;;
25936;SDS011;13733;51.178;4.450;2023-04-19T05:59:07;22.95;;;18.27;;
25936;SDS011;13733;51.178;4.450;2023-04-19T06:01:33;26.98;;;19.52;;
25936;SDS011;13733;51.178;4.450;2023-04-19T06:03:59;27.50;;;18.85;;
25936;SDS011;13733;51.178;4.450;2023-04-19T06:06:25;25.30;;;18.33;;
25936;SDS011;13733;51.178;4.450;2023-04-19T06:08:51;24.27;;;17.88;;
25936;SDS011;13733;51.178;4.450;2023-04-19T06:11:17;25.75;;;19.25;;
25936;SDS011;13733;51.178;4.450;2023-04-19T06:13:43;23.67;;;18.30;;
25936;SDS011;13733;51.178;4.450;2023-04-19T06:16:09;21.23;;;16.45;;
25936;SDS011;13733;51.178;4.450;2023-04-19T06:18:36;21.77;;;15.82;;
25936;SDS011;13733;51.178;4.450;2023-04-19T06:21:02;21.75;;;16.02;;
25936;SDS011;13733;51.178;4.450;2023-04-19T06:23:27;23.15;;;17.08;;
25936;SDS011;13733;51.178;4.450;2023-04-19T06:25:53;22.23;;;16.13;;
25936;SDS011;13733;51.178;4.450;2023-04-19T06:28:19;21.20;;;15.07;;
25936;SDS011;13733;51.178;4.450;2023-04-19T06:30:44;20.52;;;15.85;;
25936;SDS011;13733;51.178;4.450;2023-04-19T06:33:10;19.88;;;14.52;;
25936;SDS011;13733;51.178;4.450;2023-04-19T06:35:36;21.67;;;15.68;;
25936;SDS011;13733;51.178;4.450;2023-04-19T06:38:03;20.40;;;15.38;;
25936;SDS011;13733;51.178;4.450;2023-04-19T06:40:29;19.63;;;15.25;;
25936;SDS011;13733;51.178;4.450;2023-04-19T06:42:55;19.73;;;14.95;;
25936;SDS011;13733;51.178;4.450;2023-04-19T06:45:21;19.30;;;14.77;;
25936;SDS011;13733;51.178;4.450;2023-04-19T06:47:47;20.02;;;15.35;;
25936;SDS011;13733;51.178;4.450;2023-04-19T06:50:13;18.25;;;14.38;;
25936;SDS011;13733;51.178;4.450;2023-04-19T06:52:38;22.48;;;14.68;;
25936;SDS011;13733;51.178;4.450;2023-04-19T06:55:07;21.85;;;14.93;;
25936;SDS011;13733;51.178;4.450;2023-04-19T06:57:33;19.65;;;14.77;;
25936;SDS011;13733;51.178;4.450;2023-04-19T06:59:59;24.17;;;15.73;;
25936;SDS011;13733;51.178;4.450;2023-04-19T07:02:25;16.95;;;13.60;;
25936;SDS011;13733;51.178;4.450;2023-04-19T07:04:51;18.10;;;15.13;;
25936;SDS011;13733;51.178;4.450;2023-04-19T07:07:17;21.65;;;15.85;;
25936;SDS011;13733;51.178;4.450;2023-04-19T07:09:42;19.65;;;14.90;;
25936;SDS011;13733;51.178;4.450;2023-04-19T07:12:08;18.10;;;14.15;;
25936;SDS011;13733;51.178;4.450;2023-04-19T07:14:34;21.70;;;13.43;;
25936;SDS011;13733;51.178;4.450;2023-04-19T07:17:00;17.05;;;12.30;;
25936;SDS011;13733;51.178;4.450;2023-04-19T07:19:27;22.45;;;13.52;;
25936;SDS011;13733;51.178;4.450;2023-04-19T07:21:53;17.92;;;12.48;;
25936;SDS011;13733;51.178;4.450;2023-04-19T07:24:19;17.52;;;12.85;;
25936;SDS011;13733;51.178;4.450;2023-04-19T07:26:45;18.23;;;12.60;;
25936;SDS011;13733;51.178;4.450;2023-04-19T07:29:10;17.45;;;11.73;;
25936;SDS011;13733;51.178;4.450;2023-04-19T07:31:36;15.25;;;11.30;;
25936;SDS011;13733;51.178;4.450;2023-04-19T07:34:02;14.05;;;10.60;;
25936;SDS011;13733;51.178;4.450;2023-04-19T07:36:27;14.48;;;11.68;;
25936;SDS011;13733;51.178;4.450;2023-04-19T07:38:53;15.40;;;10.82;;
25936;SDS011;13733;51.178;4.450;2023-04-19T07:41:19;14.23;;;10.73;;
25936;SDS011;13733;51.178;4.450;2023-04-19T07:43:45;12.38;;;9.60;;
25936;SDS011;13733;51.178;4.450;2023-04-19T07:46:11;13.40;;;10.20;;
25936;SDS011;13733;51.178;4.450;2023-04-19T07:48:40;11.68;;;10.00;;
25936;SDS011;13733;51.178;4.450;2023-04-19T07:53:34;12.13;;;9.55;;
25936;SDS011;13733;51.178;4.450;2023-04-19T07:56:00;10.98;;;9.18;;
25936;SDS011;13733;51.178;4.450;2023-04-19T07:58:25;12.45;;;8.98;;
25936;SDS011;13733;51.178;4.450;2023-04-19T08:00:51;10.75;;;8.57;;
25936;SDS011;13733;51.178;4.450;2023-04-19T08:03:17;13.80;;;9.05;;
25936;SDS011;13733;51.178;4.450;2023-04-19T08:05:43;12.23;;;8.95;;
25936;SDS011;13733;51.178;4.450;2023-04-19T08:08:08;13.82;;;8.73;;
25936;SDS011;13733;51.178;4.450;2023-04-19T08:10:34;10.20;;;8.98;;
25936;SDS011;13733;51.178;4.450;2023-04-19T08:13:00;11.43;;;9.18;;
25936;SDS011;13733;51.178;4.450;2023-04-19T08:15:25;11.25;;;8.35;;
25936;SDS011;13733;51.178;4.450;2023-04-19T08:17:51;13.25;;;9.07;;
25936;SDS011;13733;51.178;4.450;2023-04-19T08:20:17;11.80;;;8.90;;
25936;SDS011;13733;51.178;4.450;2023-04-19T08:22:43;10.68;;;8.27;;
25936;SDS011;13733;51.178;4.450;2023-04-19T08:25:09;13.05;;;9.00;;
25936;SDS011;13733;51.178;4.450;2023-04-19T08:27:35;10.30;;;8.32;;
25936;SDS011;13733;51.178;4.450;2023-04-19T08:30:01;14.82;;;8.75;;
25936;SDS011;13733;51.178;4.450;2023-04-19T08:32:27;9.95;;;8.55;;
25936;SDS011;13733;51.178;4.450;2023-04-19T08:34:53;13.00;;;8.23;;
25936;SDS011;13733;51.178;4.450;2023-04-19T08:37:19;13.57;;;7.95;;
25936;SDS011;13733;51.178;4.450;2023-04-19T08:39:45;10.07;;;7.68;;
25936;SDS011;13733;51.178;4.450;2023-04-19T08:42:11;10.35;;;7.80;;
25936;SDS011;13733;51.178;4.450;2023-04-19T08:44:36;9.43;;;8.27;;
25936;SDS011;13733;51.178;4.450;2023-04-19T08:47:04;9.05;;;7.75;;
25936;SDS011;13733;51.178;4.450;2023-04-19T08:49:30;10.02;;;8.23;;
25936;SDS011;13733;51.178;4.450;2023-04-19T08:52:00;9.00;;;7.88;;
25936;SDS011;13733;51.178;4.450;2023-04-19T08:54:28;13.55;;;7.97;;
25936;SDS011;13733;51.178;4.450;2023-04-19T08:56:57;13.95;;;8.52;;
25936;SDS011;13733;51.178;4.450;2023-04-19T08:59:24;12.07;;;8.02;;
25936;SDS011;13733;51.178;4.450;2023-04-19T09:01:50;9.00;;;8.05;;
25936;SDS011;13733;51.178;4.450;2023-04-19T09:04:16;13.13;;;7.63;;
25936;SDS011;13733;51.178;4.450;2023-04-19T09:06:42;10.43;;;7.82;;
25936;SDS011;13733;51.178;4.450;2023-04-19T09:11:40;10.48;;;7.55;;
25936;SDS011;13733;51.178;4.450;2023-04-19T09:14:07;10.13;;;7.53;;
25936;SDS011;13733;51.178;4.450;2023-04-19T09:16:36;9.85;;;8.10;;
25936;SDS011;13733;51.178;4.450;2023-04-19T09:19:03;9.52;;;7.50;;
25936;SDS011;13733;51.178;4.450;2023-04-19T09:21:30;11.88;;;7.65;;
25936;SDS011;13733;51.178;4.450;2023-04-19T09:23:57;14.13;;;8.48;;
25936;SDS011;13733;51.178;4.450;2023-04-19T09:26:24;10.68;;;8.15;;
25936;SDS011;13733;51.178;4.450;2023-04-19T09:31:33;9.55;;;7.20;;
25936;SDS011;13733;51.178;4.450;2023-04-19T09:34:21;9.40;;;8.07;;
25936;SDS011;13733;51.178;4.450;2023-04-19T09:36:48;11.95;;;7.93;;
25936;SDS011;13733;51.178;4.450;2023-04-19T09:39:17;18.73;;;8.18;;
25936;SDS011;13733;51.178;4.450;2023-04-19T09:41:53;13.10;;;7.43;;
25936;SDS011;13733;51.178;4.450;2023-04-19T09:44:19;14.45;;;7.25;;
25936;SDS011;13733;51.178;4.450;2023-04-19T09:46:45;11.13;;;7.80;;
25936;SDS011;13733;51.178;4.450;2023-04-19T09:51:52;7.95;;;7.15;;
25936;SDS011;13733;51.178;4.450;2023-04-19T09:54:19;9.48;;;7.97;;
25936;SDS011;13733;51.178;4.450;2023-04-19T09:56:46;10.13;;;8.07;;
25936;SDS011;13733;51.178;4.450;2023-04-19T09:59:13;11.13;;;7.82;;
25936;SDS011;13733;51.178;4.450;2023-04-19T10:01:42;9.55;;;7.80;;
25936;SDS011;13733;51.178;4.450;2023-04-19T10:04:11;8.80;;;7.85;;
25936;SDS011;13733;51.178;4.450;2023-04-19T10:06:39;9.90;;;7.97;;
25936;SDS011;13733;51.178;4.450;2023-04-19T10:09:05;12.50;;;8.25;;
25936;SDS011;13733;51.178;4.450;2023-04-19T10:11:36;10.15;;;7.90;;
25936;SDS011;13733;51.178;4.450;2023-04-19T10:14:06;9.45;;;7.80;;
25936;SDS011;13733;51.178;4.450;2023-04-19T10:16:33;12.95;;;8.25;;
25936;SDS011;13733;51.178;4.450;2023-04-19T10:19:04;12.57;;;7.78;;
25936;SDS011;13733;51.178;4.450;2023-04-19T10:21:35;9.60;;;7.88;;
25936;SDS011;13733;51.178;4.450;2023-04-19T10:24:01;11.27;;;7.88;;
25936;SDS011;13733;51.178;4.450;2023-04-19T10:26:28;11.88;;;8.45;;
25936;SDS011;13733;51.178;4.450;2023-04-19T10:28:54;10.38;;;8.30;;
25936;SDS011;13733;51.178;4.450;2023-04-19T10:31:24;12.23;;;7.55;;
25936;SDS011;13733;51.178;4.450;2023-04-19T10:33:50;9.55;;;7.70;;
25936;SDS011;13733;51.178;4.450;2023-04-19T10:36:17;12.57;;;7.65;;
25936;SDS011;13733;51.178;4.450;2023-04-19T10:38:46;13.27;;;7.60;;
25936;SDS011;13733;51.178;4.450;2023-04-19T10:41:14;10.70;;;7.03;;
25936;SDS011;13733;51.178;4.450;2023-04-19T10:43:43;8.68;;;7.55;;
25936;SDS011;13733;51.178;4.450;2023-04-19T10:49:01;9.27;;;7.30;;
25936;SDS011;13733;51.178;4.450;2023-04-19T10:53:58;17.53;;;7.80;;
25936;SDS011;13733;51.178;4.450;2023-04-19T11:01:35;10.60;;;7.20;;
25936;SDS011;13733;51.178;4.450;2023-04-19T11:04:12;9.13;;;6.78;;
25936;SDS011;13733;51.178;4.450;2023-04-19T11:07:01;9.35;;;6.80;;
25936;SDS011;13733;51.178;4.450;2023-04-19T11:09:37;8.52;;;6.70;;
25936;SDS011;13733;51.178;4.450;2023-04-19T11:12:15;7.65;;;6.05;;
25936;SDS011;13733;51.178;4.450;2023-04-19T11:14:43;10.18;;;5.75;;
25936;SDS011;13733;51.178;4.450;2023-04-19T11:17:28;13.38;;;6.30;;
25936;SDS011;13733;51.178;4.450;2023-04-19T11:20:06;9.95;;;6.50;;
25936;SDS011;13733;51.178;4.450;2023-04-19T11:25:24;8.95;;;5.70;;
25936;SDS011;13733;51.178;4.450;2023-04-19T11:27:51;6.32;;;5.28;;
25936;SDS011;13733;51.178;4.450;2023-04-19T11:30:18;13.48;;;5.63;;
25936;SDS011;13733;51.178;4.450;2023-04-19T11:32:47;10.30;;;6.03;;
25936;SDS011;13733;51.178;4.450;2023-04-19T11:35:24;8.63;;;5.30;;
25936;SDS011;13733;51.178;4.450;2023-04-19T11:37:52;7.57;;;5.38;;
25936;SDS011;13733;51.178;4.450;2023-04-19T11:40:21;8.07;;;4.75;;
25936;SDS011;13733;51.178;4.450;2023-04-19T11:42:57;10.35;;;4.80;;
25936;SDS011;13733;51.178;4.450;2023-04-19T11:45:25;8.65;;;4.55;;
25936;SDS011;13733;51.178;4.450;2023-04-19T11:47:53;8.27;;;4.63;;
25936;SDS011;13733;51.178;4.450;2023-04-19T11:50:34;9.60;;;4.68;;
25936;SDS011;13733;51.178;4.450;2023-04-19T11:55:36;5.38;;;3.70;;
25936;SDS011;13733;51.178;4.450;2023-04-19T11:58:05;10.88;;;4.65;;
25936;SDS011;13733;51.178;4.450;2023-04-19T12:00:33;7.20;;;4.15;;
25936;SDS011;13733;51.178;4.450;2023-04-19T12:02:59;9.63;;;3.90;;
25936;SDS011;13733;51.178;4.450;2023-04-19T12:05:26;8.98;;;3.92;;
25936;SDS011;13733;51.178;4.450;2023-04-19T12:07:59;8.00;;;3.40;;
25936;SDS011;13733;51.178;4.450;2023-04-19T12:10:29;7.80;;;3.65;;
25936;SDS011;13733;51.178;4.450;2023-04-19T12:12:55;5.78;;;3.70;;
25936;SDS011;13733;51.178;4.450;2023-04-19T12:15:21;7.65;;;4.93;;
25936;SDS011;13733;51.178;4.450;2023-04-19T12:18:00;7.03;;;5.03;;
25936;SDS011;13733;51.178;4.450;2023-04-19T12:20:36;10.52;;;3.97;;
25936;SDS011;13733;51.178;4.450;2023-04-19T12:23:03;11.05;;;4.38;;
25936;SDS011;13733;51.178;4.450;2023-04-19T12:27:56;5.93;;;3.40;;
25936;SDS011;13733;51.178;4.450;2023-04-19T12:30:21;21.83;;;4.63;;
25936;SDS011;13733;51.178;4.450;2023-04-19T12:32:47;3.97;;;3.08;;
25936;SDS011;13733;51.178;4.450;2023-04-19T12:35:15;10.68;;;4.22;;
25936;SDS011;13733;51.178;4.450;2023-04-19T12:37:42;5.85;;;3.33;;
25936;SDS011;13733;51.178;4.450;2023-04-19T12:40:08;7.50;;;3.20;;
25936;SDS011;13733;51.178;4.450;2023-04-19T12:42:34;8.82;;;3.28;;
25936;SDS011;13733;51.178;4.450;2023-04-19T12:45:00;7.57;;;3.28;;
25936;SDS011;13733;51.178;4.450;2023-04-19T12:47:25;9.73;;;3.20;;
25936;SDS011;13733;51.178;4.450;2023-04-19T12:49:51;9.25;;;2.97;;
25936;SDS011;13733;51.178;4.450;2023-04-19T12:52:17;7.95;;;2.60;;
25936;SDS011;13733;51.178;4.450;2023-04-19T12:54:43;4.53;;;3.10;;
25936;SDS011;13733;51.178;4.450;2023-04-19T12:57:09;4.30;;;3.10;;
25936;SDS011;13733;51.178;4.450;2023-04-19T12:59:35;6.00;;;2.90;;
25936;SDS011;13733;51.178;4.450;2023-04-19T13:02:01;6.20;;;2.80;;
25936;SDS011;13733;51.178;4.450;2023-04-19T13:04:27;6.43;;;2.83;;
25936;SDS011;13733;51.178;4.450;2023-04-19T13:06:52;8.32;;;3.00;;
25936;SDS011;13733;51.178;4.450;2023-04-19T13:09:18;6.05;;;2.55;;
25936;SDS011;13733;51.178;4.450;2023-04-19T13:11:44;6.63;;;2.80;;
25936;SDS011;13733;51.178;4.450;2023-04-19T13:14:10;10.20;;;2.80;;
25936;SDS011;13733;51.178;4.450;2023-04-19T13:16:36;4.18;;;2.60;;
25936;SDS011;13733;51.178;4.450;2023-04-19T13:19:03;4.50;;;2.40;;
25936;SDS011;13733;51.178;4.450;2023-04-19T13:21:29;7.65;;;2.70;;
25936;SDS011;13733;51.178;4.450;2023-04-19T13:23:59;10.77;;;2.65;;
25936;SDS011;13733;51.178;4.450;2023-04-19T13:26:25;9.60;;;2.60;;
25936;SDS011;13733;51.178;4.450;2023-04-19T13:28:50;4.20;;;2.33;;
25936;SDS011;13733;51.178;4.450;2023-04-19T13:31:16;8.10;;;2.47;;
25936;SDS011;13733;51.178;4.450;2023-04-19T13:33:42;7.05;;;2.38;;
25936;SDS011;13733;51.178;4.450;2023-04-19T13:36:08;7.93;;;2.38;;
25936;SDS011;13733;51.178;4.450;2023-04-19T13:38:34;6.40;;;2.00;;
25936;SDS011;13733;51.178;4.450;2023-04-19T13:41:01;13.38;;;2.40;;
25936;SDS011;13733;51.178;4.450;2023-04-19T13:43:27;16.02;;;2.80;;
25936;SDS011;13733;51.178;4.450;2023-04-19T13:45:53;4.03;;;2.00;;
25936;SDS011;13733;51.178;4.450;2023-04-19T13:48:19;4.18;;;2.10;;
25936;SDS011;13733;51.178;4.450;2023-04-19T13:51:10;6.15;;;2.47;;
25936;SDS011;13733;51.178;4.450;2023-04-19T13:53:37;3.83;;;2.70;;
25936;SDS011;13733;51.178;4.450;2023-04-19T13:56:05;4.57;;;2.50;;
25936;SDS011;13733;51.178;4.450;2023-04-19T13:58:33;3.80;;;2.10;;
25936;SDS011;13733;51.178;4.450;2023-04-19T14:01:00;6.07;;;2.50;;
25936;SDS011;13733;51.178;4.450;2023-04-19T14:03:25;6.13;;;2.50;;
25936;SDS011;13733;51.178;4.450;2023-04-19T14:05:51;3.08;;;2.70;;
25936;SDS011;13733;51.178;4.450;2023-04-19T14:08:18;7.43;;;2.50;;
25936;SDS011;13733;51.178;4.450;2023-04-19T14:10:45;5.60;;;2.42;;
25936;SDS011;13733;51.178;4.450;2023-04-19T14:13:11;2.67;;;2.03;;
25936;SDS011;13733;51.178;4.450;2023-04-19T14:15:36;8.93;;;3.15;;
25936;SDS011;13733;51.178;4.450;2023-04-19T14:18:02;5.50;;;2.90;;
25936;SDS011;13733;51.178;4.450;2023-04-19T14:20:28;5.65;;;2.83;;
25936;SDS011;13733;51.178;4.450;2023-04-19T14:22:54;7.18;;;3.25;;
25936;SDS011;13733;51.178;4.450;2023-04-19T14:25:22;9.05;;;2.70;;
25936;SDS011;13733;51.178;4.450;2023-04-19T14:27:48;5.03;;;2.70;;
25936;SDS011;13733;51.178;4.450;2023-04-19T14:30:14;5.53;;;2.42;;
25936;SDS011;13733;51.178;4.450;2023-04-19T14:32:40;6.05;;;2.33;;
25936;SDS011;13733;51.178;4.450;2023-04-19T14:35:06;3.30;;;2.40;;
25936;SDS011;13733;51.178;4.450;2023-04-19T14:37:33;5.80;;;2.45;;
25936;SDS011;13733;51.178;4.450;2023-04-19T14:39:59;9.10;;;2.38;;
25936;SDS011;13733;51.178;4.450;2023-04-19T14:42:25;5.35;;;2.10;;
25936;SDS011;13733;51.178;4.450;2023-04-19T14:44:50;5.93;;;2.35;;
25936;SDS011;13733;51.178;4.450;2023-04-19T14:47:16;5.57;;;2.65;;
25936;SDS011;13733;51.178;4.450;2023-04-19T14:49:42;10.35;;;2.50;;
25936;SDS011;13733;51.178;4.450;2023-04-19T14:52:08;7.97;;;2.75;;
25936;SDS011;13733;51.178;4.450;2023-04-19T14:54:33;11.35;;;2.47;;
25936;SDS011;13733;51.178;4.450;2023-04-19T14:56:59;3.55;;;2.28;;
25936;SDS011;13733;51.178;4.450;2023-04-19T14:59:25;7.35;;;2.80;;
25936;SDS011;13733;51.178;4.450;2023-04-19T15:01:51;4.82;;;1.92;;
25936;SDS011;13733;51.178;4.450;2023-04-19T15:04:17;4.07;;;2.50;;